sensor_id;sensor_type;location;lat;lon;timestamp;P1;durP1;ratioP1;P2;durP2;ratioP2
4867;SDS011;2448;48.086;10.862;2023-02-05T00:01:38;2.33;;;2.20;;
4867;SDS011;2448;48.086;10.862;2023-02-05T00:04:03;1.60;;;1.40;;
4867;SDS011;2448;48.086;10.862;2023-02-05T00:06:29;1.40;;;1.40;;
4867;SDS011;2448;48.086;10.862;2023-02-05T00:08:55;2.37;;;2.17;;
4867;SDS011;2448;48.086;10.862;2023-02-05T00:11:20;2.00;;;1.90;;
4867;SDS011;2448;48.086;10.862;2023-02-05T00:13:45;1.90;;;1.80;;
4867;SDS011;2448;48.086;10.862;2023-02-05T00:16:12;1.50;;;1.40;;
4867;SDS011;2448;48.086;10.862;2023-02-05T00:18:37;1.70;;;1.60;;
4867;SDS011;2448;48.086;10.862;2023-02-05T00:21:03;1.57;;;1.57;;
4867;SDS011;2448;48.086;10.862;2023-02-05T00:23:29;1.43;;;1.43;;
4867;SDS011;2448;48.086;10.862;2023-02-05T00:25:54;1.40;;;1.40;;
4867;SDS011;2448;48.086;10.862;2023-02-05T00:28:20;1.33;;;1.17;;
4867;SDS011;2448;48.086;10.862;2023-02-05T00:30:45;3.83;;;2.23;;
4867;SDS011;2448;48.086;10.862;2023-02-05T00:33:10;1.73;;;1.40;;
4867;SDS011;2448;48.086;10.862;2023-02-05T00:35:36;1.80;;;1.70;;
4867;SDS011;2448;48.086;10.862;2023-02-05T00:38:01;1.60;;;1.60;;
4867;SDS011;2448;48.086;10.862;2023-02-05T00:40:26;1.63;;;1.53;;
4867;SDS011;2448;48.086;10.862;2023-02-05T00:42:52;1.67;;;1.50;;
4867;SDS011;2448;48.086;10.862;2023-02-05T00:45:17;3.43;;;2.43;;
4867;SDS011;2448;48.086;10.862;2023-02-05T00:47:42;1.50;;;1.33;;
4867;SDS011;2448;48.086;10.862;2023-02-05T00:50:08;1.70;;;1.60;;
4867;SDS011;2448;48.086;10.862;2023-02-05T00:52:33;1.23;;;1.23;;
4867;SDS011;2448;48.086;10.862;2023-02-05T00:54:59;3.80;;;1.50;;
4867;SDS011;2448;48.086;10.862;2023-02-05T00:57:24;1.53;;;1.53;;
4867;SDS011;2448;48.086;10.862;2023-02-05T00:59:51;1.40;;;1.40;;
4867;SDS011;2448;48.086;10.862;2023-02-05T01:02:17;2.33;;;2.23;;
4867;SDS011;2448;48.086;10.862;2023-02-05T01:04:47;1.70;;;1.60;;
4867;SDS011;2448;48.086;10.862;2023-02-05T01:07:12;1.53;;;1.43;;
4867;SDS011;2448;48.086;10.862;2023-02-05T01:09:38;1.90;;;1.80;;
4867;SDS011;2448;48.086;10.862;2023-02-05T01:12:03;1.80;;;1.70;;
4867;SDS011;2448;48.086;10.862;2023-02-05T01:14:29;2.00;;;1.90;;
4867;SDS011;2448;48.086;10.862;2023-02-05T01:16:54;1.20;;;1.20;;
4867;SDS011;2448;48.086;10.862;2023-02-05T01:19:19;1.30;;;1.30;;
4867;SDS011;2448;48.086;10.862;2023-02-05T01:21:45;1.20;;;1.20;;
4867;SDS011;2448;48.086;10.862;2023-02-05T01:24:10;1.23;;;1.23;;
4867;SDS011;2448;48.086;10.862;2023-02-05T01:26:37;1.73;;;1.63;;
4867;SDS011;2448;48.086;10.862;2023-02-05T01:29:02;1.40;;;1.37;;
4867;SDS011;2448;48.086;10.862;2023-02-05T01:31:27;1.40;;;1.30;;
4867;SDS011;2448;48.086;10.862;2023-02-05T01:33:54;1.10;;;1.10;;
4867;SDS011;2448;48.086;10.862;2023-02-05T01:36:19;1.70;;;1.60;;
4867;SDS011;2448;48.086;10.862;2023-02-05T01:38:45;1.77;;;1.63;;
4867;SDS011;2448;48.086;10.862;2023-02-05T01:41:11;2.50;;;2.40;;
4867;SDS011;2448;48.086;10.862;2023-02-05T01:43:36;1.27;;;1.27;;
4867;SDS011;2448;48.086;10.862;2023-02-05T01:48:28;1.57;;;1.50;;
4867;SDS011;2448;48.086;10.862;2023-02-05T01:50:56;2.13;;;1.93;;
4867;SDS011;2448;48.086;10.862;2023-02-05T01:53:24;1.93;;;1.83;;
4867;SDS011;2448;48.086;10.862;2023-02-05T01:58:20;1.73;;;1.63;;
4867;SDS011;2448;48.086;10.862;2023-02-05T02:00:46;2.00;;;1.90;;
4867;SDS011;2448;48.086;10.862;2023-02-05T02:03:11;2.00;;;1.90;;
4867;SDS011;2448;48.086;10.862;2023-02-05T02:05:38;1.77;;;1.77;;
4867;SDS011;2448;48.086;10.862;2023-02-05T02:08:04;2.43;;;2.23;;
4867;SDS011;2448;48.086;10.862;2023-02-05T02:10:29;2.03;;;1.93;;
4867;SDS011;2448;48.086;10.862;2023-02-05T02:12:55;1.77;;;1.67;;
4867;SDS011;2448;48.086;10.862;2023-02-05T02:15:21;1.60;;;1.60;;
4867;SDS011;2448;48.086;10.862;2023-02-05T02:17:52;3.60;;;2.03;;
4867;SDS011;2448;48.086;10.862;2023-02-05T02:20:22;2.37;;;2.27;;
4867;SDS011;2448;48.086;10.862;2023-02-05T02:28:06;2.27;;;2.17;;
4867;SDS011;2448;48.086;10.862;2023-02-05T02:30:41;2.40;;;2.30;;
4867;SDS011;2448;48.086;10.862;2023-02-05T02:33:16;1.63;;;1.53;;
4867;SDS011;2448;48.086;10.862;2023-02-05T02:38:15;2.27;;;2.07;;
4867;SDS011;2448;48.086;10.862;2023-02-05T02:40:49;1.63;;;1.57;;
4867;SDS011;2448;48.086;10.862;2023-02-05T02:43:24;3.47;;;2.43;;
4867;SDS011;2448;48.086;10.862;2023-02-05T02:45:52;3.07;;;2.87;;
4867;SDS011;2448;48.086;10.862;2023-02-05T02:48:20;2.40;;;2.20;;
4867;SDS011;2448;48.086;10.862;2023-02-05T02:50:47;1.60;;;1.60;;
4867;SDS011;2448;48.086;10.862;2023-02-05T02:53:14;1.93;;;1.90;;
4867;SDS011;2448;48.086;10.862;2023-02-05T02:55:41;1.83;;;1.73;;
4867;SDS011;2448;48.086;10.862;2023-02-05T02:58:09;1.70;;;1.60;;
4867;SDS011;2448;48.086;10.862;2023-02-05T03:00:37;1.80;;;1.80;;
4867;SDS011;2448;48.086;10.862;2023-02-05T03:03:04;1.60;;;1.60;;
4867;SDS011;2448;48.086;10.862;2023-02-05T03:05:30;2.00;;;1.90;;
4867;SDS011;2448;48.086;10.862;2023-02-05T03:07:58;2.10;;;2.00;;
4867;SDS011;2448;48.086;10.862;2023-02-05T03:10:25;2.30;;;2.20;;
4867;SDS011;2448;48.086;10.862;2023-02-05T03:12:53;1.67;;;1.67;;
4867;SDS011;2448;48.086;10.862;2023-02-05T03:15:19;2.40;;;2.20;;
4867;SDS011;2448;48.086;10.862;2023-02-05T03:17:44;4.00;;;2.43;;
4867;SDS011;2448;48.086;10.862;2023-02-05T03:22:42;1.80;;;1.80;;
4867;SDS011;2448;48.086;10.862;2023-02-05T03:25:08;1.83;;;1.80;;
4867;SDS011;2448;48.086;10.862;2023-02-05T03:27:34;2.80;;;2.47;;
4867;SDS011;2448;48.086;10.862;2023-02-05T03:30:01;2.43;;;2.00;;
4867;SDS011;2448;48.086;10.862;2023-02-05T03:32:34;1.63;;;1.53;;
4867;SDS011;2448;48.086;10.862;2023-02-05T03:48:01;1.87;;;1.87;;
4867;SDS011;2448;48.086;10.862;2023-02-05T03:50:31;2.57;;;1.50;;
4867;SDS011;2448;48.086;10.862;2023-02-05T03:55:40;1.70;;;1.60;;
4867;SDS011;2448;48.086;10.862;2023-02-05T03:58:10;1.93;;;1.83;;
4867;SDS011;2448;48.086;10.862;2023-02-05T04:00:38;1.60;;;1.50;;
4867;SDS011;2448;48.086;10.862;2023-02-05T04:03:04;1.80;;;1.80;;
4867;SDS011;2448;48.086;10.862;2023-02-05T04:05:31;2.60;;;2.30;;
4867;SDS011;2448;48.086;10.862;2023-02-05T04:07:58;2.37;;;2.20;;
4867;SDS011;2448;48.086;10.862;2023-02-05T04:10:29;1.83;;;1.80;;
4867;SDS011;2448;48.086;10.862;2023-02-05T04:12:57;1.63;;;1.63;;
4867;SDS011;2448;48.086;10.862;2023-02-05T04:15:23;1.30;;;1.30;;
4867;SDS011;2448;48.086;10.862;2023-02-05T04:17:52;2.30;;;2.00;;
4867;SDS011;2448;48.086;10.862;2023-02-05T04:20:17;1.87;;;1.87;;
4867;SDS011;2448;48.086;10.862;2023-02-05T04:22:43;1.70;;;1.70;;
4867;SDS011;2448;48.086;10.862;2023-02-05T04:25:08;2.40;;;2.20;;
4867;SDS011;2448;48.086;10.862;2023-02-05T04:27:34;2.23;;;2.13;;
4867;SDS011;2448;48.086;10.862;2023-02-05T04:30:01;2.00;;;1.90;;
4867;SDS011;2448;48.086;10.862;2023-02-05T04:32:29;1.40;;;1.40;;
4867;SDS011;2448;48.086;10.862;2023-02-05T04:34:55;1.30;;;1.30;;
4867;SDS011;2448;48.086;10.862;2023-02-05T04:37:21;3.03;;;2.03;;
4867;SDS011;2448;48.086;10.862;2023-02-05T04:39:46;1.60;;;1.60;;
4867;SDS011;2448;48.086;10.862;2023-02-05T04:42:11;1.70;;;1.60;;
4867;SDS011;2448;48.086;10.862;2023-02-05T04:44:37;1.40;;;1.40;;
4867;SDS011;2448;48.086;10.862;2023-02-05T04:47:02;3.47;;;2.03;;
4867;SDS011;2448;48.086;10.862;2023-02-05T04:49:27;2.30;;;1.97;;
4867;SDS011;2448;48.086;10.862;2023-02-05T04:51:53;7.53;;;1.73;;
4867;SDS011;2448;48.086;10.862;2023-02-05T04:54:18;1.13;;;1.13;;
4867;SDS011;2448;48.086;10.862;2023-02-05T04:56:43;1.77;;;1.20;;
4867;SDS011;2448;48.086;10.862;2023-02-05T04:59:10;1.63;;;1.13;;
4867;SDS011;2448;48.086;10.862;2023-02-05T05:01:36;1.10;;;1.10;;
4867;SDS011;2448;48.086;10.862;2023-02-05T05:04:01;1.70;;;1.70;;
4867;SDS011;2448;48.086;10.862;2023-02-05T05:06:26;2.03;;;1.93;;
4867;SDS011;2448;48.086;10.862;2023-02-05T05:08:52;2.30;;;2.00;;
4867;SDS011;2448;48.086;10.862;2023-02-05T05:11:18;1.57;;;1.57;;
4867;SDS011;2448;48.086;10.862;2023-02-05T05:13:43;2.27;;;1.60;;
4867;SDS011;2448;48.086;10.862;2023-02-05T05:16:09;1.60;;;1.50;;
4867;SDS011;2448;48.086;10.862;2023-02-05T05:18:35;2.10;;;2.00;;
4867;SDS011;2448;48.086;10.862;2023-02-05T05:21:01;1.57;;;1.57;;
4867;SDS011;2448;48.086;10.862;2023-02-05T05:23:27;2.97;;;2.77;;
4867;SDS011;2448;48.086;10.862;2023-02-05T05:25:52;2.27;;;2.07;;
4867;SDS011;2448;48.086;10.862;2023-02-05T05:28:18;3.77;;;2.50;;
4867;SDS011;2448;48.086;10.862;2023-02-05T05:30:44;27.57;;;1.77;;
4867;SDS011;2448;48.086;10.862;2023-02-05T05:33:10;20.60;;;2.13;;
4867;SDS011;2448;48.086;10.862;2023-02-05T05:35:35;2.47;;;2.37;;
4867;SDS011;2448;48.086;10.862;2023-02-05T05:38:01;1.47;;;1.37;;
4867;SDS011;2448;48.086;10.862;2023-02-05T05:40:27;1.50;;;1.40;;
4867;SDS011;2448;48.086;10.862;2023-02-05T05:43:12;1.57;;;1.57;;
4867;SDS011;2448;48.086;10.862;2023-02-05T05:45:56;2.10;;;2.07;;
4867;SDS011;2448;48.086;10.862;2023-02-05T05:48:21;1.93;;;1.87;;
4867;SDS011;2448;48.086;10.862;2023-02-05T05:50:47;1.73;;;1.73;;
4867;SDS011;2448;48.086;10.862;2023-02-05T05:53:12;1.77;;;1.70;;
4867;SDS011;2448;48.086;10.862;2023-02-05T05:55:38;1.43;;;1.43;;
4867;SDS011;2448;48.086;10.862;2023-02-05T05:58:03;1.23;;;1.23;;
4867;SDS011;2448;48.086;10.862;2023-02-05T06:00:28;1.20;;;1.20;;
4867;SDS011;2448;48.086;10.862;2023-02-05T06:02:54;1.73;;;1.73;;
4867;SDS011;2448;48.086;10.862;2023-02-05T06:05:19;2.33;;;2.13;;
4867;SDS011;2448;48.086;10.862;2023-02-05T06:07:44;1.90;;;1.80;;
4867;SDS011;2448;48.086;10.862;2023-02-05T06:10:10;2.47;;;2.33;;
4867;SDS011;2448;48.086;10.862;2023-02-05T06:12:35;1.90;;;1.90;;
4867;SDS011;2448;48.086;10.862;2023-02-05T06:15:00;1.43;;;1.33;;
4867;SDS011;2448;48.086;10.862;2023-02-05T06:17:26;1.47;;;1.43;;
4867;SDS011;2448;48.086;10.862;2023-02-05T06:19:52;1.70;;;1.70;;
4867;SDS011;2448;48.086;10.862;2023-02-05T06:22:17;2.50;;;2.20;;
4867;SDS011;2448;48.086;10.862;2023-02-05T06:24:43;1.90;;;1.80;;
4867;SDS011;2448;48.086;10.862;2023-02-05T06:27:08;3.43;;;2.77;;
4867;SDS011;2448;48.086;10.862;2023-02-05T06:29:33;3.27;;;2.73;;
4867;SDS011;2448;48.086;10.862;2023-02-05T06:31:58;2.50;;;2.30;;
4867;SDS011;2448;48.086;10.862;2023-02-05T06:34:24;2.90;;;2.43;;
4867;SDS011;2448;48.086;10.862;2023-02-05T06:36:49;2.00;;;1.90;;
4867;SDS011;2448;48.086;10.862;2023-02-05T06:39:15;2.73;;;2.63;;
4867;SDS011;2448;48.086;10.862;2023-02-05T06:41:40;10.00;;;2.20;;
4867;SDS011;2448;48.086;10.862;2023-02-05T06:44:05;1.13;;;1.13;;
4867;SDS011;2448;48.086;10.862;2023-02-05T06:46:31;2.67;;;2.47;;
4867;SDS011;2448;48.086;10.862;2023-02-05T06:48:56;2.43;;;2.23;;
4867;SDS011;2448;48.086;10.862;2023-02-05T06:51:21;2.67;;;2.47;;
4867;SDS011;2448;48.086;10.862;2023-02-05T06:53:47;2.00;;;1.90;;
4867;SDS011;2448;48.086;10.862;2023-02-05T06:56:12;2.93;;;2.70;;
4867;SDS011;2448;48.086;10.862;2023-02-05T06:58:37;2.40;;;2.20;;
4867;SDS011;2448;48.086;10.862;2023-02-05T07:01:03;2.53;;;2.33;;
4867;SDS011;2448;48.086;10.862;2023-02-05T07:03:28;14.07;;;3.00;;
4867;SDS011;2448;48.086;10.862;2023-02-05T07:05:53;2.00;;;1.90;;
4867;SDS011;2448;48.086;10.862;2023-02-05T07:08:19;43.77;;;2.33;;
4867;SDS011;2448;48.086;10.862;2023-02-05T07:10:44;72.57;;;2.83;;
4867;SDS011;2448;48.086;10.862;2023-02-05T07:13:10;5.00;;;3.13;;
4867;SDS011;2448;48.086;10.862;2023-02-05T07:15:35;22.60;;;4.47;;
4867;SDS011;2448;48.086;10.862;2023-02-05T07:18:01;4.97;;;2.30;;
4867;SDS011;2448;48.086;10.862;2023-02-05T07:20:27;29.67;;;2.73;;
4867;SDS011;2448;48.086;10.862;2023-02-05T07:22:52;2.97;;;2.80;;
4867;SDS011;2448;48.086;10.862;2023-02-05T07:25:17;2.53;;;2.40;;
4867;SDS011;2448;48.086;10.862;2023-02-05T07:27:43;3.50;;;2.90;;
4867;SDS011;2448;48.086;10.862;2023-02-05T07:30:08;6.30;;;3.10;;
4867;SDS011;2448;48.086;10.862;2023-02-05T07:32:34;2.17;;;2.07;;
4867;SDS011;2448;48.086;10.862;2023-02-05T07:35:00;2.53;;;2.23;;
4867;SDS011;2448;48.086;10.862;2023-02-05T07:37:25;30.47;;;2.80;;
4867;SDS011;2448;48.086;10.862;2023-02-05T07:39:50;2.83;;;2.50;;
4867;SDS011;2448;48.086;10.862;2023-02-05T07:42:16;3.60;;;3.33;;
4867;SDS011;2448;48.086;10.862;2023-02-05T07:44:48;2.90;;;2.70;;
4867;SDS011;2448;48.086;10.862;2023-02-05T07:47:13;3.23;;;2.50;;
4867;SDS011;2448;48.086;10.862;2023-02-05T07:49:39;2.97;;;2.70;;
4867;SDS011;2448;48.086;10.862;2023-02-05T07:52:05;2.80;;;2.70;;
4867;SDS011;2448;48.086;10.862;2023-02-05T07:54:30;5.40;;;2.93;;
4867;SDS011;2448;48.086;10.862;2023-02-05T07:56:56;2.50;;;2.40;;
4867;SDS011;2448;48.086;10.862;2023-02-05T07:59:21;5.33;;;3.33;;
4867;SDS011;2448;48.086;10.862;2023-02-05T08:01:46;3.17;;;2.97;;
4867;SDS011;2448;48.086;10.862;2023-02-05T08:04:12;3.47;;;3.17;;
4867;SDS011;2448;48.086;10.862;2023-02-05T08:06:37;3.63;;;3.33;;
4867;SDS011;2448;48.086;10.862;2023-02-05T08:09:03;3.40;;;3.10;;
4867;SDS011;2448;48.086;10.862;2023-02-05T08:11:28;3.87;;;3.57;;
4867;SDS011;2448;48.086;10.862;2023-02-05T08:13:53;3.83;;;3.53;;
4867;SDS011;2448;48.086;10.862;2023-02-05T08:16:19;3.83;;;3.53;;
4867;SDS011;2448;48.086;10.862;2023-02-05T08:18:47;4.87;;;4.20;;
4867;SDS011;2448;48.086;10.862;2023-02-05T08:21:13;4.80;;;3.70;;
4867;SDS011;2448;48.086;10.862;2023-02-05T08:23:39;4.97;;;3.53;;
4867;SDS011;2448;48.086;10.862;2023-02-05T08:26:04;3.50;;;3.00;;
4867;SDS011;2448;48.086;10.862;2023-02-05T08:28:30;4.43;;;3.60;;
4867;SDS011;2448;48.086;10.862;2023-02-05T08:30:55;4.30;;;3.37;;
4867;SDS011;2448;48.086;10.862;2023-02-05T08:33:21;7.70;;;3.40;;
4867;SDS011;2448;48.086;10.862;2023-02-05T08:35:46;3.53;;;3.23;;
4867;SDS011;2448;48.086;10.862;2023-02-05T08:38:11;3.93;;;3.50;;
4867;SDS011;2448;48.086;10.862;2023-02-05T08:40:37;3.53;;;3.23;;
4867;SDS011;2448;48.086;10.862;2023-02-05T08:43:02;5.10;;;4.10;;
4867;SDS011;2448;48.086;10.862;2023-02-05T08:45:28;3.10;;;2.90;;
4867;SDS011;2448;48.086;10.862;2023-02-05T08:47:53;5.43;;;3.00;;
4867;SDS011;2448;48.086;10.862;2023-02-05T08:50:19;6.60;;;3.43;;
4867;SDS011;2448;48.086;10.862;2023-02-05T08:52:44;4.83;;;3.27;;
4867;SDS011;2448;48.086;10.862;2023-02-05T08:55:10;4.57;;;4.10;;
4867;SDS011;2448;48.086;10.862;2023-02-05T08:57:35;3.63;;;3.33;;
4867;SDS011;2448;48.086;10.862;2023-02-05T09:00:02;4.63;;;3.50;;
4867;SDS011;2448;48.086;10.862;2023-02-05T09:02:28;11.40;;;3.93;;
4867;SDS011;2448;48.086;10.862;2023-02-05T09:04:54;3.83;;;3.07;;
4867;SDS011;2448;48.086;10.862;2023-02-05T09:07:19;3.83;;;3.40;;
4867;SDS011;2448;48.086;10.862;2023-02-05T09:09:44;7.20;;;3.80;;
4867;SDS011;2448;48.086;10.862;2023-02-05T09:12:10;4.10;;;3.40;;
4867;SDS011;2448;48.086;10.862;2023-02-05T09:14:36;3.43;;;2.97;;
4867;SDS011;2448;48.086;10.862;2023-02-05T09:17:02;3.70;;;3.10;;
4867;SDS011;2448;48.086;10.862;2023-02-05T09:19:28;5.40;;;3.27;;
4867;SDS011;2448;48.086;10.862;2023-02-05T09:21:55;3.27;;;3.00;;
4867;SDS011;2448;48.086;10.862;2023-02-05T09:24:20;5.43;;;3.10;;
4867;SDS011;2448;48.086;10.862;2023-02-05T09:26:46;3.07;;;2.87;;
4867;SDS011;2448;48.086;10.862;2023-02-05T09:29:11;3.33;;;3.03;;
4867;SDS011;2448;48.086;10.862;2023-02-05T09:31:37;6.80;;;3.80;;
4867;SDS011;2448;48.086;10.862;2023-02-05T09:34:04;4.90;;;2.90;;
4867;SDS011;2448;48.086;10.862;2023-02-05T09:36:29;4.53;;;3.50;;
4867;SDS011;2448;48.086;10.862;2023-02-05T09:38:55;3.17;;;2.90;;
4867;SDS011;2448;48.086;10.862;2023-02-05T09:41:24;8.70;;;2.43;;
4867;SDS011;2448;48.086;10.862;2023-02-05T09:46:19;4.20;;;2.80;;
4867;SDS011;2448;48.086;10.862;2023-02-05T09:48:47;7.63;;;2.70;;
4867;SDS011;2448;48.086;10.862;2023-02-05T09:51:16;2.63;;;2.47;;
4867;SDS011;2448;48.086;10.862;2023-02-05T09:53:44;3.33;;;3.03;;
4867;SDS011;2448;48.086;10.862;2023-02-05T09:56:11;2.90;;;2.70;;
4867;SDS011;2448;48.086;10.862;2023-02-05T09:58:39;3.83;;;3.17;;
4867;SDS011;2448;48.086;10.862;2023-02-05T10:01:06;6.13;;;3.13;;
4867;SDS011;2448;48.086;10.862;2023-02-05T10:03:42;3.53;;;3.13;;
4867;SDS011;2448;48.086;10.862;2023-02-05T10:14:15;2.50;;;2.33;;
4867;SDS011;2448;48.086;10.862;2023-02-05T10:16:47;2.40;;;2.20;;
4867;SDS011;2448;48.086;10.862;2023-02-05T10:24:39;2.10;;;2.00;;
4867;SDS011;2448;48.086;10.862;2023-02-05T10:32:09;3.03;;;1.90;;
4867;SDS011;2448;48.086;10.862;2023-02-05T10:34:58;6.90;;;2.33;;
4867;SDS011;2448;48.086;10.862;2023-02-05T10:37:30;2.80;;;2.60;;
4867;SDS011;2448;48.086;10.862;2023-02-05T10:39:57;5.50;;;2.60;;
4867;SDS011;2448;48.086;10.862;2023-02-05T10:42:31;16.70;;;2.37;;
4867;SDS011;2448;48.086;10.862;2023-02-05T10:50:30;23.23;;;2.77;;
4867;SDS011;2448;48.086;10.862;2023-02-05T10:52:46;2.50;;;2.30;;
4867;SDS011;2448;48.086;10.862;2023-02-05T10:55:12;3.90;;;3.33;;
4867;SDS011;2448;48.086;10.862;2023-02-05T10:57:38;5.37;;;3.10;;
4867;SDS011;2448;48.086;10.862;2023-02-05T11:00:13;3.10;;;2.90;;
4867;SDS011;2448;48.086;10.862;2023-02-05T11:02:40;7.43;;;2.70;;
4867;SDS011;2448;48.086;10.862;2023-02-05T11:05:12;12.47;;;3.60;;
4867;SDS011;2448;48.086;10.862;2023-02-05T11:07:43;14.67;;;4.53;;
4867;SDS011;2448;48.086;10.862;2023-02-05T11:10:22;5.70;;;3.60;;
4867;SDS011;2448;48.086;10.862;2023-02-05T11:12:49;16.50;;;5.80;;
4867;SDS011;2448;48.086;10.862;2023-02-05T11:15:33;5.47;;;2.87;;
4867;SDS011;2448;48.086;10.862;2023-02-05T11:17:59;5.27;;;1.90;;
4867;SDS011;2448;48.086;10.862;2023-02-05T11:20:30;9.73;;;2.93;;
4867;SDS011;2448;48.086;10.862;2023-02-05T11:28:18;8.97;;;2.40;;
4867;SDS011;2448;48.086;10.862;2023-02-05T11:30:44;4.60;;;4.00;;
4867;SDS011;2448;48.086;10.862;2023-02-05T11:33:17;4.30;;;3.13;;
4867;SDS011;2448;48.086;10.862;2023-02-05T11:40:53;3.27;;;2.70;;
4867;SDS011;2448;48.086;10.862;2023-02-05T11:46:08;6.00;;;2.40;;
4867;SDS011;2448;48.086;10.862;2023-02-05T11:48:41;4.53;;;2.20;;
4867;SDS011;2448;48.086;10.862;2023-02-05T11:51:09;3.70;;;1.90;;
4867;SDS011;2448;48.086;10.862;2023-02-05T11:53:35;2.87;;;2.20;;
4867;SDS011;2448;48.086;10.862;2023-02-05T11:56:06;3.33;;;2.97;;
4867;SDS011;2448;48.086;10.862;2023-02-05T11:58:32;5.00;;;3.33;;
4867;SDS011;2448;48.086;10.862;2023-02-05T12:01:00;4.10;;;2.40;;
4867;SDS011;2448;48.086;10.862;2023-02-05T12:03:30;5.47;;;2.73;;
4867;SDS011;2448;48.086;10.862;2023-02-05T12:08:35;5.13;;;3.07;;
4867;SDS011;2448;48.086;10.862;2023-02-05T12:13:43;4.87;;;2.33;;
4867;SDS011;2448;48.086;10.862;2023-02-05T12:16:18;4.43;;;2.67;;
4867;SDS011;2448;48.086;10.862;2023-02-05T12:18:51;5.43;;;1.70;;
4867;SDS011;2448;48.086;10.862;2023-02-05T12:21:29;8.73;;;1.73;;
4867;SDS011;2448;48.086;10.862;2023-02-05T12:26:31;5.13;;;2.43;;
4867;SDS011;2448;48.086;10.862;2023-02-05T12:34:11;4.80;;;2.70;;
4867;SDS011;2448;48.086;10.862;2023-02-05T12:36:44;5.50;;;2.50;;
4867;SDS011;2448;48.086;10.862;2023-02-05T12:42:00;2.33;;;1.87;;
4867;SDS011;2448;48.086;10.862;2023-02-05T12:49:41;15.03;;;2.33;;
4867;SDS011;2448;48.086;10.862;2023-02-05T12:52:14;4.63;;;1.83;;
4867;SDS011;2448;48.086;10.862;2023-02-05T12:57:12;2.77;;;2.03;;
4867;SDS011;2448;48.086;10.862;2023-02-05T12:59:48;4.20;;;2.27;;
4867;SDS011;2448;48.086;10.862;2023-02-05T13:02:21;2.93;;;1.60;;
4867;SDS011;2448;48.086;10.862;2023-02-05T13:04:50;5.93;;;1.87;;
4867;SDS011;2448;48.086;10.862;2023-02-05T13:07:29;8.03;;;2.07;;
4867;SDS011;2448;48.086;10.862;2023-02-05T13:10:13;8.23;;;2.30;;
4867;SDS011;2448;48.086;10.862;2023-02-05T13:12:40;2.80;;;1.67;;
4867;SDS011;2448;48.086;10.862;2023-02-05T13:17:37;1.40;;;1.40;;
4867;SDS011;2448;48.086;10.862;2023-02-05T13:20:05;1.53;;;1.53;;
4867;SDS011;2448;48.086;10.862;2023-02-05T13:22:36;2.70;;;2.13;;
4867;SDS011;2448;48.086;10.862;2023-02-05T13:25:28;2.20;;;1.70;;
4867;SDS011;2448;48.086;10.862;2023-02-05T13:27:56;4.50;;;2.27;;
4867;SDS011;2448;48.086;10.862;2023-02-05T13:30:42;6.80;;;2.00;;
4867;SDS011;2448;48.086;10.862;2023-02-05T13:33:09;3.03;;;2.30;;
4867;SDS011;2448;48.086;10.862;2023-02-05T13:35:56;4.73;;;2.60;;
4867;SDS011;2448;48.086;10.862;2023-02-05T13:46:36;3.10;;;1.97;;
4867;SDS011;2448;48.086;10.862;2023-02-05T13:52:05;3.00;;;2.80;;
4867;SDS011;2448;48.086;10.862;2023-02-05T13:59:49;4.10;;;2.70;;
4867;SDS011;2448;48.086;10.862;2023-02-05T14:04:56;3.60;;;2.20;;
4867;SDS011;2448;48.086;10.862;2023-02-05T14:07:30;14.30;;;2.63;;
4867;SDS011;2448;48.086;10.862;2023-02-05T14:09:56;6.17;;;2.60;;
4867;SDS011;2448;48.086;10.862;2023-02-05T14:12:26;3.13;;;2.30;;
4867;SDS011;2448;48.086;10.862;2023-02-05T14:20:01;3.03;;;2.43;;
4867;SDS011;2448;48.086;10.862;2023-02-05T14:22:37;1.97;;;1.87;;
4867;SDS011;2448;48.086;10.862;2023-02-05T14:25:03;5.70;;;2.87;;
4867;SDS011;2448;48.086;10.862;2023-02-05T14:29:54;7.23;;;2.50;;
4867;SDS011;2448;48.086;10.862;2023-02-05T14:34:58;3.67;;;2.87;;
4867;SDS011;2448;48.086;10.862;2023-02-05T14:37:29;3.17;;;2.90;;
4867;SDS011;2448;48.086;10.862;2023-02-05T14:40:22;14.33;;;3.83;;
4867;SDS011;2448;48.086;10.862;2023-02-05T14:42:49;3.33;;;2.43;;
4867;SDS011;2448;48.086;10.862;2023-02-05T14:45:16;1.90;;;1.80;;
4867;SDS011;2448;48.086;10.862;2023-02-05T14:47:43;2.47;;;2.20;;
4867;SDS011;2448;48.086;10.862;2023-02-05T14:50:10;12.70;;;2.23;;
4867;SDS011;2448;48.086;10.862;2023-02-05T14:52:49;4.40;;;3.53;;
4867;SDS011;2448;48.086;10.862;2023-02-05T14:57:47;2.83;;;2.63;;
4867;SDS011;2448;48.086;10.862;2023-02-05T15:05:46;3.10;;;1.93;;
4867;SDS011;2448;48.086;10.862;2023-02-05T15:08:56;2.97;;;2.73;;
4867;SDS011;2448;48.086;10.862;2023-02-05T15:16:29;5.50;;;2.70;;
4867;SDS011;2448;48.086;10.862;2023-02-05T15:18:58;18.43;;;3.57;;
4867;SDS011;2448;48.086;10.862;2023-02-05T15:24:34;6.23;;;3.70;;
4867;SDS011;2448;48.086;10.862;2023-02-05T15:26:40;11.77;;;3.70;;
4867;SDS011;2448;48.086;10.862;2023-02-05T15:32:15;8.73;;;3.33;;
4867;SDS011;2448;48.086;10.862;2023-02-05T15:34:42;24.63;;;4.53;;
4867;SDS011;2448;48.086;10.862;2023-02-05T15:40:11;3.57;;;3.20;;
4867;SDS011;2448;48.086;10.862;2023-02-05T15:42:41;3.57;;;2.37;;
4867;SDS011;2448;48.086;10.862;2023-02-05T15:45:24;2.67;;;2.50;;
4867;SDS011;2448;48.086;10.862;2023-02-05T15:48:06;4.23;;;2.87;;
4867;SDS011;2448;48.086;10.862;2023-02-05T15:50:43;2.07;;;1.97;;
4867;SDS011;2448;48.086;10.862;2023-02-05T15:53:16;2.83;;;2.60;;
4867;SDS011;2448;48.086;10.862;2023-02-05T15:55:47;2.60;;;2.43;;
4867;SDS011;2448;48.086;10.862;2023-02-05T15:58:12;1.97;;;1.80;;
4867;SDS011;2448;48.086;10.862;2023-02-05T16:00:40;2.30;;;2.10;;
4867;SDS011;2448;48.086;10.862;2023-02-05T16:03:20;5.10;;;2.20;;
4867;SDS011;2448;48.086;10.862;2023-02-05T16:05:50;4.63;;;3.00;;
4867;SDS011;2448;48.086;10.862;2023-02-05T16:08:16;1.80;;;1.80;;
4867;SDS011;2448;48.086;10.862;2023-02-05T16:10:49;7.53;;;3.03;;
4867;SDS011;2448;48.086;10.862;2023-02-05T16:13:16;2.57;;;2.37;;
4867;SDS011;2448;48.086;10.862;2023-02-05T16:15:57;5.07;;;3.30;;
4867;SDS011;2448;48.086;10.862;2023-02-05T16:18:43;3.00;;;2.80;;
4867;SDS011;2448;48.086;10.862;2023-02-05T16:21:30;4.30;;;3.70;;
4867;SDS011;2448;48.086;10.862;2023-02-05T16:23:57;2.43;;;2.30;;
4867;SDS011;2448;48.086;10.862;2023-02-05T16:26:43;3.23;;;2.97;;
4867;SDS011;2448;48.086;10.862;2023-02-05T16:29:21;12.40;;;2.33;;
4867;SDS011;2448;48.086;10.862;2023-02-05T16:31:54;3.20;;;3.00;;
4867;SDS011;2448;48.086;10.862;2023-02-05T16:34:20;4.60;;;3.13;;
4867;SDS011;2448;48.086;10.862;2023-02-05T16:36:46;7.90;;;3.93;;
4867;SDS011;2448;48.086;10.862;2023-02-05T16:39:26;3.10;;;2.50;;
4867;SDS011;2448;48.086;10.862;2023-02-05T16:42:06;3.20;;;2.90;;
4867;SDS011;2448;48.086;10.862;2023-02-05T16:44:35;3.03;;;2.90;;
4867;SDS011;2448;48.086;10.862;2023-02-05T16:47:18;2.30;;;2.17;;
4867;SDS011;2448;48.086;10.862;2023-02-05T16:49:44;5.73;;;3.67;;
4867;SDS011;2448;48.086;10.862;2023-02-05T16:52:29;3.07;;;1.97;;
4867;SDS011;2448;48.086;10.862;2023-02-05T16:55:06;3.40;;;3.10;;
4867;SDS011;2448;48.086;10.862;2023-02-05T16:57:33;4.10;;;1.90;;
4867;SDS011;2448;48.086;10.862;2023-02-05T17:00:02;6.43;;;3.50;;
4867;SDS011;2448;48.086;10.862;2023-02-05T17:02:35;2.00;;;1.90;;
4867;SDS011;2448;48.086;10.862;2023-02-05T17:05:01;3.27;;;2.77;;
4867;SDS011;2448;48.086;10.862;2023-02-05T17:07:27;2.47;;;2.33;;
4867;SDS011;2448;48.086;10.862;2023-02-05T17:09:56;1.87;;;1.77;;
4867;SDS011;2448;48.086;10.862;2023-02-05T17:14:58;4.70;;;2.47;;
4867;SDS011;2448;48.086;10.862;2023-02-05T17:17:24;3.43;;;2.40;;
4867;SDS011;2448;48.086;10.862;2023-02-05T17:20:32;4.20;;;2.50;;
4867;SDS011;2448;48.086;10.862;2023-02-05T17:22:38;1.93;;;1.83;;
4867;SDS011;2448;48.086;10.862;2023-02-05T17:25:04;5.60;;;2.87;;
4867;SDS011;2448;48.086;10.862;2023-02-05T17:27:30;2.37;;;2.17;;
4867;SDS011;2448;48.086;10.862;2023-02-05T17:29:57;2.27;;;2.07;;
4867;SDS011;2448;48.086;10.862;2023-02-05T17:32:23;2.30;;;2.10;;
4867;SDS011;2448;48.086;10.862;2023-02-05T17:34:49;2.10;;;2.00;;
4867;SDS011;2448;48.086;10.862;2023-02-05T17:37:14;2.07;;;1.97;;